sensor_id;sensor_type;location;lat;lon;timestamp;pressure;altitude;pressure_sealevel;temperature;humidity
54948;BME280;41113;41.882;12.530;2023-01-28T00:01:32;100456.25;;;5.06;92.30
54948;BME280;41113;41.882;12.530;2023-01-28T00:03:58;100456.47;;;5.03;92.90
54948;BME280;41113;41.882;12.530;2023-01-28T00:06:24;100450.59;;;5.10;92.85
54948;BME280;41113;41.882;12.530;2023-01-28T00:08:50;100462.97;;;5.24;92.31
54948;BME280;41113;41.882;12.530;2023-01-28T00:11:15;100458.16;;;5.16;92.30
54948;BME280;41113;41.882;12.530;2023-01-28T00:13:41;100458.72;;;5.21;91.69
54948;BME280;41113;41.882;12.530;2023-01-28T00:16:07;100460.41;;;5.22;91.79
54948;BME280;41113;41.882;12.530;2023-01-28T00:18:34;100455.41;;;5.05;92.18
54948;BME280;41113;41.882;12.530;2023-01-28T00:21:02;100460.50;;;5.08;92.63
54948;BME280;41113;41.882;12.530;2023-01-28T00:23:32;100454.34;;;5.08;92.28
54948;BME280;41113;41.882;12.530;2023-01-28T00:25:59;100463.50;;;5.04;92.17
54948;BME280;41113;41.882;12.530;2023-01-28T00:28:25;100466.69;;;4.96;92.36
54948;BME280;41113;41.882;12.530;2023-01-28T00:30:51;100459.56;;;4.96;92.31
54948;BME280;41113;41.882;12.530;2023-01-28T00:33:17;100460.84;;;4.91;92.84
54948;BME280;41113;41.882;12.530;2023-01-28T00:35:42;100466.25;;;5.02;93.16
54948;BME280;41113;41.882;12.530;2023-01-28T00:38:08;100465.84;;;5.08;92.40
54948;BME280;41113;41.882;12.530;2023-01-28T00:40:34;100458.81;;;5.07;92.23
54948;BME280;41113;41.882;12.530;2023-01-28T00:42:59;100456.88;;;5.09;91.77
54948;BME280;41113;41.882;12.530;2023-01-28T00:45:25;100447.41;;;5.05;91.43
54948;BME280;41113;41.882;12.530;2023-01-28T00:47:50;100455.41;;;5.05;91.55
54948;BME280;41113;41.882;12.530;2023-01-28T00:50:16;100451.56;;;5.09;91.63
54948;BME280;41113;41.882;12.530;2023-01-28T00:52:42;100454.44;;;5.06;91.54
54948;BME280;41113;41.882;12.530;2023-01-28T00:55:07;100463.28;;;5.07;91.66
54948;BME280;41113;41.882;12.530;2023-01-28T00:57:33;100462.44;;;5.06;91.91
54948;BME280;41113;41.882;12.530;2023-01-28T00:59:58;100469.88;;;5.01;92.28
54948;BME280;41113;41.882;12.530;2023-01-28T01:02:24;100470.53;;;4.92;92.97
54948;BME280;41113;41.882;12.530;2023-01-28T01:04:54;100473.19;;;4.92;92.92
54948;BME280;41113;41.882;12.530;2023-01-28T01:07:28;100479.03;;;4.97;92.75
54948;BME280;41113;41.882;12.530;2023-01-28T01:10:02;100483.50;;;4.96;92.70
54948;BME280;41113;41.882;12.530;2023-01-28T01:12:28;100483.19;;;5.01;93.08
54948;BME280;41113;41.882;12.530;2023-01-28T01:14:55;100489.56;;;4.98;92.43
54948;BME280;41113;41.882;12.530;2023-01-28T01:17:21;100497.34;;;5.02;92.26
54948;BME280;41113;41.882;12.530;2023-01-28T01:19:46;100498.19;;;5.02;92.35
54948;BME280;41113;41.882;12.530;2023-01-28T01:22:12;100503.09;;;5.08;91.92
54948;BME280;41113;41.882;12.530;2023-01-28T01:24:37;100511.84;;;5.23;91.68
54948;BME280;41113;41.882;12.530;2023-01-28T01:27:03;100511.94;;;5.21;91.23
54948;BME280;41113;41.882;12.530;2023-01-28T01:29:30;100518.03;;;5.23;91.27
54948;BME280;41113;41.882;12.530;2023-01-28T01:31:58;100523.66;;;5.31;90.80
54948;BME280;41113;41.882;12.530;2023-01-28T01:34:24;100515.66;;;5.44;90.27
54948;BME280;41113;41.882;12.530;2023-01-28T01:36:50;100524.06;;;5.51;89.63
54948;BME280;41113;41.882;12.530;2023-01-28T01:39:16;100532.28;;;5.60;89.19
54948;BME280;41113;41.882;12.530;2023-01-28T01:41:41;100534.59;;;5.65;89.00
54948;BME280;41113;41.882;12.530;2023-01-28T01:47:11;100530.25;;;5.64;89.79
54948;BME280;41113;41.882;12.530;2023-01-28T01:49:37;100519.28;;;5.30;90.52
54948;BME280;41113;41.882;12.530;2023-01-28T01:52:09;100512.81;;;5.22;92.14
54948;BME280;41113;41.882;12.530;2023-01-28T01:54:37;100504.16;;;5.18;92.71
54948;BME280;41113;41.882;12.530;2023-01-28T01:57:05;100511.59;;;5.13;93.33
54948;BME280;41113;41.882;12.530;2023-01-28T01:59:33;100517.16;;;5.23;93.66
54948;BME280;41113;41.882;12.530;2023-01-28T02:02:02;100515.88;;;5.28;93.79
54948;BME280;41113;41.882;12.530;2023-01-28T02:04:40;100503.97;;;5.21;92.67
54948;BME280;41113;41.882;12.530;2023-01-28T02:07:09;100525.66;;;5.03;92.98
54948;BME280;41113;41.882;12.530;2023-01-28T02:09:36;100522.56;;;4.96;94.61
54948;BME280;41113;41.882;12.530;2023-01-28T02:12:23;100510.34;;;5.06;94.15
54948;BME280;41113;41.882;12.530;2023-01-28T02:17:26;100514.59;;;4.96;93.79
54948;BME280;41113;41.882;12.530;2023-01-28T02:19:58;100506.94;;;5.04;93.73
54948;BME280;41113;41.882;12.530;2023-01-28T02:30:40;100514.28;;;4.88;94.13
54948;BME280;41113;41.882;12.530;2023-01-28T02:33:17;100521.19;;;4.90;94.01
54948;BME280;41113;41.882;12.530;2023-01-28T02:35:52;100518.63;;;4.89;93.74
54948;BME280;41113;41.882;12.530;2023-01-28T02:38:35;100511.59;;;4.88;94.95
54948;BME280;41113;41.882;12.530;2023-01-28T02:41:07;100509.88;;;4.87;95.47
54948;BME280;41113;41.882;12.530;2023-01-28T02:43:43;100508.38;;;4.83;95.40
54948;BME280;41113;41.882;12.530;2023-01-28T02:48:56;100503.31;;;4.92;95.08
54948;BME280;41113;41.882;12.530;2023-01-28T02:54:41;100499.69;;;5.06;94.45
54948;BME280;41113;41.882;12.530;2023-01-28T02:57:37;100510.13;;;5.09;94.11
54948;BME280;41113;41.882;12.530;2023-01-28T03:00:17;100502.66;;;5.14;94.25
54948;BME280;41113;41.882;12.530;2023-01-28T03:03:07;100512.91;;;5.20;93.34
54948;BME280;41113;41.882;12.530;2023-01-28T03:05:55;100515.88;;;5.16;92.60
54948;BME280;41113;41.882;12.530;2023-01-28T03:08:47;100513.75;;;5.21;92.87
54948;BME280;41113;41.882;12.530;2023-01-28T03:11:35;100518.97;;;5.22;92.71
54948;BME280;41113;41.882;12.530;2023-01-28T03:14:22;100513.44;;;5.25;92.84
54948;BME280;41113;41.882;12.530;2023-01-28T03:17:14;100519.72;;;5.24;93.28
54948;BME280;41113;41.882;12.530;2023-01-28T03:20:00;100512.47;;;5.26;93.47
54948;BME280;41113;41.882;12.530;2023-01-28T03:22:45;100510.13;;;5.09;94.22
54948;BME280;41113;41.882;12.530;2023-01-28T03:25:32;100510.75;;;5.13;95.31
54948;BME280;41113;41.882;12.530;2023-01-28T03:28:19;100514.59;;;5.09;94.73
54948;BME280;41113;41.882;12.530;2023-01-28T03:31:16;100510.97;;;5.10;95.07
54948;BME280;41113;41.882;12.530;2023-01-28T03:34:03;100513.09;;;5.17;94.76
54948;BME280;41113;41.882;12.530;2023-01-28T03:36:48;100518.25;;;5.20;95.12
54948;BME280;41113;41.882;12.530;2023-01-28T03:39:16;100518.97;;;5.22;94.80
54948;BME280;41113;41.882;12.530;2023-01-28T03:41:54;100526.31;;;5.19;95.01
54948;BME280;41113;41.882;12.530;2023-01-28T03:44:19;100525.66;;;5.15;95.02
54948;BME280;41113;41.882;12.530;2023-01-28T03:47:03;100530.66;;;5.20;95.33
54948;BME280;41113;41.882;12.530;2023-01-28T03:49:31;100526.53;;;5.28;94.97
54948;BME280;41113;41.882;12.530;2023-01-28T03:51:56;100532.94;;;5.26;95.00
54948;BME280;41113;41.882;12.530;2023-01-28T03:54:22;100539.09;;;5.26;94.33
54948;BME280;41113;41.882;12.530;2023-01-28T03:56:47;100534.81;;;5.11;95.33
54948;BME280;41113;41.882;12.530;2023-01-28T03:59:14;100531.41;;;5.09;96.17
54948;BME280;41113;41.882;12.530;2023-01-28T04:01:39;100535.13;;;5.19;96.56
54948;BME280;41113;41.882;12.530;2023-01-28T04:04:05;100539.41;;;5.09;96.76
54948;BME280;41113;41.882;12.530;2023-01-28T04:06:31;100547.59;;;5.06;96.82
54948;BME280;41113;41.882;12.530;2023-01-28T04:08:56;100551.22;;;5.18;97.32
54948;BME280;41113;41.882;12.530;2023-01-28T04:11:24;100542.72;;;5.25;96.93
54948;BME280;41113;41.882;12.530;2023-01-28T04:13:50;100548.28;;;5.22;96.50
54948;BME280;41113;41.882;12.530;2023-01-28T04:16:17;100540.19;;;5.24;97.12
54948;BME280;41113;41.882;12.530;2023-01-28T04:18:43;100541.97;;;5.23;97.18
54948;BME280;41113;41.882;12.530;2023-01-28T04:21:09;100532.06;;;5.25;97.10
54948;BME280;41113;41.882;12.530;2023-01-28T04:23:35;100539.31;;;5.23;96.68
54948;BME280;41113;41.882;12.530;2023-01-28T04:26:00;100552.63;;;5.23;96.93
54948;BME280;41113;41.882;12.530;2023-01-28T04:28:26;100565.00;;;5.24;96.94
54948;BME280;41113;41.882;12.530;2023-01-28T04:30:52;100570.84;;;5.29;97.53
54948;BME280;41113;41.882;12.530;2023-01-28T04:33:18;100573.41;;;5.31;97.57
54948;BME280;41113;41.882;12.530;2023-01-28T04:35:43;100571.91;;;5.27;97.09
54948;BME280;41113;41.882;12.530;2023-01-28T04:38:09;100586.28;;;5.24;96.97
54948;BME280;41113;41.882;12.530;2023-01-28T04:40:34;100581.91;;;5.23;97.06
54948;BME280;41113;41.882;12.530;2023-01-28T04:43:00;100588.63;;;5.29;97.00
54948;BME280;41113;41.882;12.530;2023-01-28T04:45:25;100591.94;;;5.32;97.65
54948;BME280;41113;41.882;12.530;2023-01-28T04:47:51;100597.69;;;5.26;97.64
54948;BME280;41113;41.882;12.530;2023-01-28T04:50:16;100591.69;;;5.10;98.43
54948;BME280;41113;41.882;12.530;2023-01-28T04:52:42;100592.09;;;5.04;99.77
54948;BME280;41113;41.882;12.530;2023-01-28T04:55:08;100599.13;;;5.05;100.00
54948;BME280;41113;41.882;12.530;2023-01-28T04:57:34;100610.72;;;4.91;100.00
54948;BME280;41113;41.882;12.530;2023-01-28T04:59:59;100605.50;;;4.90;100.00
54948;BME280;41113;41.882;12.530;2023-01-28T05:02:25;100601.88;;;5.04;100.00
54948;BME280;41113;41.882;12.530;2023-01-28T05:04:50;100610.72;;;5.04;100.00
54948;BME280;41113;41.882;12.530;2023-01-28T05:07:16;100608.50;;;5.11;100.00
54948;BME280;41113;41.882;12.530;2023-01-28T05:09:41;100617.53;;;5.08;100.00
54948;BME280;41113;41.882;12.530;2023-01-28T05:12:07;100615.09;;;5.05;100.00
54948;BME280;41113;41.882;12.530;2023-01-28T05:14:32;100621.50;;;5.15;100.00
54948;BME280;41113;41.882;12.530;2023-01-28T05:16:57;100622.81;;;5.22;100.00
54948;BME280;41113;41.882;12.530;2023-01-28T05:19:23;100628.31;;;5.19;99.32
54948;BME280;41113;41.882;12.530;2023-01-28T05:21:48;100633.63;;;5.19;98.90
54948;BME280;41113;41.882;12.530;2023-01-28T05:24:13;100628.31;;;5.19;98.77
54948;BME280;41113;41.882;12.530;2023-01-28T05:26:40;100630.91;;;5.21;99.19
54948;BME280;41113;41.882;12.530;2023-01-28T05:29:06;100624.72;;;5.20;98.04
54948;BME280;41113;41.882;12.530;2023-01-28T05:31:32;100625.53;;;5.08;98.88
54948;BME280;41113;41.882;12.530;2023-01-28T05:33:57;100628.50;;;5.04;100.00
54948;BME280;41113;41.882;12.530;2023-01-28T05:36:23;100627.84;;;5.00;100.00
54948;BME280;41113;41.882;12.530;2023-01-28T05:38:48;100632.09;;;4.90;100.00
54948;BME280;41113;41.882;12.530;2023-01-28T05:41:14;100632.63;;;4.95;100.00
54948;BME280;41113;41.882;12.530;2023-01-28T05:43:39;100632.84;;;4.92;100.00
54948;BME280;41113;41.882;12.530;2023-01-28T05:46:05;100633.81;;;4.91;100.00
54948;BME280;41113;41.882;12.530;2023-01-28T05:48:30;100638.50;;;5.00;100.00
54948;BME280;41113;41.882;12.530;2023-01-28T05:50:56;100639.22;;;4.89;100.00
54948;BME280;41113;41.882;12.530;2023-01-28T05:53:21;100649.34;;;4.97;100.00
54948;BME280;41113;41.882;12.530;2023-01-28T05:55:48;100646.91;;;4.94;100.00
54948;BME280;41113;41.882;12.530;2023-01-28T05:58:14;100637.69;;;4.85;100.00
54948;BME280;41113;41.882;12.530;2023-01-28T06:00:40;100634.94;;;4.87;100.00
54948;BME280;41113;41.882;12.530;2023-01-28T06:03:05;100634.78;;;4.76;100.00
54948;BME280;41113;41.882;12.530;2023-01-28T06:05:30;100627.47;;;4.79;100.00
54948;BME280;41113;41.882;12.530;2023-01-28T06:07:56;100633.81;;;4.91;100.00
54948;BME280;41113;41.882;12.530;2023-01-28T06:10:21;100628.00;;;4.84;100.00
54948;BME280;41113;41.882;12.530;2023-01-28T06:12:47;100622.44;;;4.75;100.00
54948;BME280;41113;41.882;12.530;2023-01-28T06:15:12;100635.75;;;4.75;100.00
54948;BME280;41113;41.882;12.530;2023-01-28T06:17:38;100635.25;;;4.82;100.00
54948;BME280;41113;41.882;12.530;2023-01-28T06:20:04;100635.00;;;4.73;100.00
54948;BME280;41113;41.882;12.530;2023-01-28T06:22:30;100650.31;;;4.69;100.00
54948;BME280;41113;41.882;12.530;2023-01-28T06:24:55;100644.47;;;4.77;100.00
54948;BME280;41113;41.882;12.530;2023-01-28T06:27:23;100661.16;;;4.66;100.00
54948;BME280;41113;41.882;12.530;2023-01-28T06:29:48;100658.25;;;4.56;100.00
54948;BME280;41113;41.882;12.530;2023-01-28T06:32:14;100672.84;;;4.49;100.00
54948;BME280;41113;41.882;12.530;2023-01-28T06:34:39;100675.81;;;4.59;100.00
54948;BME280;41113;41.882;12.530;2023-01-28T06:37:05;100676.81;;;4.71;100.00
54948;BME280;41113;41.882;12.530;2023-01-28T06:39:30;100684.13;;;4.67;100.00
54948;BME280;41113;41.882;12.530;2023-01-28T06:41:57;100684.59;;;4.74;100.00
54948;BME280;41113;41.882;12.530;2023-01-28T06:44:22;100693.72;;;4.69;100.00
54948;BME280;41113;41.882;12.530;2023-01-28T06:46:48;100694.38;;;4.73;100.00
54948;BME280;41113;41.882;12.530;2023-01-28T06:49:13;100709.47;;;4.73;100.00
54948;BME280;41113;41.882;12.530;2023-01-28T06:51:38;100707.97;;;4.68;100.00
54948;BME280;41113;41.882;12.530;2023-01-28T06:54:04;100710.06;;;4.63;100.00
54948;BME280;41113;41.882;12.530;2023-01-28T06:56:29;100712.53;;;4.66;100.00
54948;BME280;41113;41.882;12.530;2023-01-28T06:58:55;100708.44;;;4.75;100.00
54948;BME280;41113;41.882;12.530;2023-01-28T07:01:20;100708.53;;;4.74;100.00
54948;BME280;41113;41.882;12.530;2023-01-28T07:03:46;100716.09;;;4.80;100.00
54948;BME280;41113;41.882;12.530;2023-01-28T07:06:11;100715.72;;;4.86;100.00
54948;BME280;41113;41.882;12.530;2023-01-28T07:08:36;100717.06;;;4.79;100.00
54948;BME280;41113;41.882;12.530;2023-01-28T07:11:02;100722.03;;;4.71;100.00
54948;BME280;41113;41.882;12.530;2023-01-28T07:13:29;100724.19;;;4.78;100.00
54948;BME280;41113;41.882;12.530;2023-01-28T07:15:54;100728.34;;;4.82;100.00
54948;BME280;41113;41.882;12.530;2023-01-28T07:18:20;100729.81;;;4.74;100.00
54948;BME280;41113;41.882;12.530;2023-01-28T07:20:45;100732.66;;;4.71;100.00
54948;BME280;41113;41.882;12.530;2023-01-28T07:23:10;100739.91;;;4.68;100.00
54948;BME280;41113;41.882;12.530;2023-01-28T07:25:37;100744.09;;;4.58;100.00
54948;BME280;41113;41.882;12.530;2023-01-28T07:28:03;100750.47;;;4.56;100.00
54948;BME280;41113;41.882;12.530;2023-01-28T07:30:29;100752.63;;;4.63;100.00
54948;BME280;41113;41.882;12.530;2023-01-28T07:32:56;100731.91;;;4.68;100.00
54948;BME280;41113;41.882;12.530;2023-01-28T07:35:23;100735.44;;;4.69;100.00
54948;BME280;41113;41.882;12.530;2023-01-28T07:37:52;100733.22;;;4.76;100.00
54948;BME280;41113;41.882;12.530;2023-01-28T07:40:17;100743.91;;;4.61;100.00
54948;BME280;41113;41.882;12.530;2023-01-28T07:42:43;100745.16;;;4.56;100.00
54948;BME280;41113;41.882;12.530;2023-01-28T07:45:09;100746.00;;;4.56;100.00
54948;BME280;41113;41.882;12.530;2023-01-28T07:47:34;100762.13;;;4.67;100.00
54948;BME280;41113;41.882;12.530;2023-01-28T07:49:59;100755.00;;;4.68;100.00
54948;BME280;41113;41.882;12.530;2023-01-28T07:52:25;100760.22;;;4.69;100.00
54948;BME280;41113;41.882;12.530;2023-01-28T07:54:50;100758.31;;;4.72;100.00
54948;BME280;41113;41.882;12.530;2023-01-28T07:57:16;100759.00;;;4.61;100.00
54948;BME280;41113;41.882;12.530;2023-01-28T07:59:48;100754.94;;;4.55;100.00
54948;BME280;41113;41.882;12.530;2023-01-28T08:02:13;100753.19;;;4.54;100.00
54948;BME280;41113;41.882;12.530;2023-01-28T08:04:39;100763.28;;;4.63;100.00
54948;BME280;41113;41.882;12.530;2023-01-28T08:07:05;100758.31;;;4.72;100.00
54948;BME280;41113;41.882;12.530;2023-01-28T08:09:30;100758.22;;;4.73;100.00
54948;BME280;41113;41.882;12.530;2023-01-28T08:11:58;100770.88;;;4.69;100.00
54948;BME280;41113;41.882;12.530;2023-01-28T08:14:24;100776.09;;;4.71;100.00
54948;BME280;41113;41.882;12.530;2023-01-28T08:16:49;100766.50;;;4.68;100.00
54948;BME280;41113;41.882;12.530;2023-01-28T08:19:14;100781.88;;;4.78;100.00
54948;BME280;41113;41.882;12.530;2023-01-28T08:21:42;100777.00;;;4.84;100.00
54948;BME280;41113;41.882;12.530;2023-01-28T08:24:07;100774.25;;;4.86;100.00
54948;BME280;41113;41.882;12.530;2023-01-28T08:26:32;100777.84;;;4.85;100.00
54948;BME280;41113;41.882;12.530;2023-01-28T08:28:58;100779.97;;;4.80;100.00
54948;BME280;41113;41.882;12.530;2023-01-28T08:31:23;100777.00;;;4.84;100.00
54948;BME280;41113;41.882;12.530;2023-01-28T08:33:49;100787.84;;;4.81;100.00
54948;BME280;41113;41.882;12.530;2023-01-28T08:36:14;100792.78;;;4.87;100.00
54948;BME280;41113;41.882;12.530;2023-01-28T08:38:39;100802.19;;;4.93;100.00
54948;BME280;41113;41.882;12.530;2023-01-28T08:41:05;100800.50;;;4.92;100.00
54948;BME280;41113;41.882;12.530;2023-01-28T08:43:30;100804.47;;;4.85;100.00
54948;BME280;41113;41.882;12.530;2023-01-28T08:45:56;100804.97;;;4.91;100.00
54948;BME280;41113;41.882;12.530;2023-01-28T08:48:21;100815.22;;;4.97;100.00
54948;BME280;41113;41.882;12.530;2023-01-28T08:50:47;100813.75;;;5.06;100.00
54948;BME280;41113;41.882;12.530;2023-01-28T08:53:15;100816.72;;;5.02;100.00
54948;BME280;41113;41.882;12.530;2023-01-28T08:55:41;100817.03;;;4.97;100.00
54948;BME280;41113;41.882;12.530;2023-01-28T08:58:10;100815.66;;;5.04;100.00
54948;BME280;41113;41.882;12.530;2023-01-28T09:00:37;100821.66;;;5.08;100.00
54948;BME280;41113;41.882;12.530;2023-01-28T09:03:03;100812.44;;;4.99;100.00
54948;BME280;41113;41.882;12.530;2023-01-28T09:05:29;100814.34;;;4.97;100.00
54948;BME280;41113;41.882;12.530;2023-01-28T09:07:56;100814.56;;;4.94;100.00
54948;BME280;41113;41.882;12.530;2023-01-28T09:10:21;100811.78;;;4.95;100.00
54948;BME280;41113;41.882;12.530;2023-01-28T09:12:47;100812.84;;;4.93;100.00
54948;BME280;41113;41.882;12.530;2023-01-28T09:15:12;100813.03;;;4.90;99.69
54948;BME280;41113;41.882;12.530;2023-01-28T09:17:38;100811.78;;;4.95;99.90
54948;BME280;41113;41.882;12.530;2023-01-28T09:20:05;100822.44;;;4.95;99.77
54948;BME280;41113;41.882;12.530;2023-01-28T09:22:31;100824.81;;;5.00;99.41
54948;BME280;41113;41.882;12.530;2023-01-28T09:24:57;100822.16;;;5.00;99.49
54948;BME280;41113;41.882;12.530;2023-01-28T09:27:22;100830.69;;;5.05;99.37
54948;BME280;41113;41.882;12.530;2023-01-28T09:29:51;100831.44;;;5.07;98.71
54948;BME280;41113;41.882;12.530;2023-01-28T09:32:17;100831.91;;;5.14;99.04
54948;BME280;41113;41.882;12.530;2023-01-28T09:34:42;100841.69;;;5.13;98.55
54948;BME280;41113;41.882;12.530;2023-01-28T09:37:09;100843.19;;;5.17;97.69
54948;BME280;41113;41.882;12.530;2023-01-28T09:39:35;100840.38;;;5.20;97.24
54948;BME280;41113;41.882;12.530;2023-01-28T09:47:38;100832.84;;;5.27;96.55
54948;BME280;41113;41.882;12.530;2023-01-28T09:50:10;100851.03;;;5.20;95.39
54948;BME280;41113;41.882;12.530;2023-01-28T09:52:38;100850.44;;;5.29;96.34
54948;BME280;41113;41.882;12.530;2023-01-28T09:55:24;100852.50;;;5.39;95.71
54948;BME280;41113;41.882;12.530;2023-01-28T09:57:54;100855.28;;;5.50;95.06
54948;BME280;41113;41.882;12.530;2023-01-28T10:00:23;100854.53;;;5.48;94.70
54948;BME280;41113;41.882;12.530;2023-01-28T10:10:56;100876.81;;;5.47;92.37
54948;BME280;41113;41.882;12.530;2023-01-28T10:19:09;100876.25;;;5.56;94.07
54948;BME280;41113;41.882;12.530;2023-01-28T10:21:43;100869.44;;;5.65;93.88
54948;BME280;41113;41.882;12.530;2023-01-28T10:24:17;100862.66;;;5.73;94.00
54948;BME280;41113;41.882;12.530;2023-01-28T10:26:46;100857.31;;;5.73;93.49
54948;BME280;41113;41.882;12.530;2023-01-28T10:29:16;100853.88;;;5.58;94.69
54948;BME280;41113;41.882;12.530;2023-01-28T10:32:20;100853.59;;;5.49;96.27
54948;BME280;41113;41.882;12.530;2023-01-28T10:34:46;100822.34;;;5.65;96.27
54948;BME280;41113;41.882;12.530;2023-01-28T10:37:13;100824.19;;;5.77;95.94
54948;BME280;41113;41.882;12.530;2023-01-28T10:39:39;100817.47;;;5.84;94.98
54948;BME280;41113;41.882;12.530;2023-01-28T10:42:26;100817.47;;;5.84;94.42
54948;BME280;41113;41.882;12.530;2023-01-28T10:44:52;100814.53;;;5.89;93.94
54948;BME280;41113;41.882;12.530;2023-01-28T10:47:28;100815.22;;;5.92;94.30
54948;BME280;41113;41.882;12.530;2023-01-28T10:49:57;100813.00;;;5.85;95.31
54948;BME280;41113;41.882;12.530;2023-01-28T10:52:24;100810.75;;;5.79;96.46
54948;BME280;41113;41.882;12.530;2023-01-28T10:55:01;100806.03;;;5.70;97.32
54948;BME280;41113;41.882;12.530;2023-01-28T10:57:26;100812.53;;;5.66;97.40
54948;BME280;41113;41.882;12.530;2023-01-28T10:59:52;100804.78;;;5.75;97.20
54948;BME280;41113;41.882;12.530;2023-01-28T11:02:32;100809.66;;;5.96;97.24
54948;BME280;41113;41.882;12.530;2023-01-28T11:07:29;100809.56;;;6.10;96.24
54948;BME280;41113;41.882;12.530;2023-01-28T11:09:55;100813.97;;;6.23;95.33
54948;BME280;41113;41.882;12.530;2023-01-28T11:12:22;100811.00;;;6.28;95.23
54948;BME280;41113;41.882;12.530;2023-01-28T11:14:54;100822.28;;;6.19;94.79
54948;BME280;41113;41.882;12.530;2023-01-28T11:17:22;100810.56;;;6.21;94.25
54948;BME280;41113;41.882;12.530;2023-01-28T11:19:50;100803.94;;;6.27;93.85
54948;BME280;41113;41.882;12.530;2023-01-28T11:22:26;100805.88;;;6.38;94.62
54948;BME280;41113;41.882;12.530;2023-01-28T11:24:56;100809.47;;;6.49;93.75
54948;BME280;41113;41.882;12.530;2023-01-28T11:27:30;100798.41;;;6.55;92.88
54948;BME280;41113;41.882;12.530;2023-01-28T11:29:58;100812.28;;;6.61;91.67
54948;BME280;41113;41.882;12.530;2023-01-28T11:32:28;100808.31;;;6.66;91.02
54948;BME280;41113;41.882;12.530;2023-01-28T11:34:55;100810.34;;;6.63;91.06
54948;BME280;41113;41.882;12.530;2023-01-28T11:37:28;100801.69;;;6.72;91.11
54948;BME280;41113;41.882;12.530;2023-01-28T11:40:13;100806.31;;;6.57;89.31
54948;BME280;41113;41.882;12.530;2023-01-28T11:42:40;100804.69;;;6.67;89.20
54948;BME280;41113;41.882;12.530;2023-01-28T11:45:15;100794.19;;;6.77;89.34
54948;BME280;41113;41.882;12.530;2023-01-28T11:51:14;100796.88;;;6.77;89.49
54948;BME280;41113;41.882;12.530;2023-01-28T11:57:42;100787.47;;;6.71;88.40
54948;BME280;41113;41.882;12.530;2023-01-28T12:05:36;100775.22;;;6.69;88.30
54948;BME280;41113;41.882;12.530;2023-01-28T12:08:25;100776.38;;;6.77;89.50
54948;BME280;41113;41.882;12.530;2023-01-28T12:38:07;100767.56;;;7.01;85.59
54948;BME280;41113;41.882;12.530;2023-01-28T12:40:52;100769.38;;;7.00;84.22
54948;BME280;41113;41.882;12.530;2023-01-28T12:49:02;100771.56;;;7.19;84.76
54948;BME280;41113;41.882;12.530;2023-01-28T12:54:26;100767.88;;;7.33;84.01
54948;BME280;41113;41.882;12.530;2023-01-28T12:56:54;100770.78;;;7.30;82.99
54948;BME280;41113;41.882;12.530;2023-01-28T13:02:13;100761.41;;;7.48;82.29
54948;BME280;41113;41.882;12.530;2023-01-28T13:07:21;100768.66;;;7.46;81.84
54948;BME280;41113;41.882;12.530;2023-01-28T13:09:58;100772.75;;;7.39;81.37
54948;BME280;41113;41.882;12.530;2023-01-28T13:12:27;100769.97;;;7.40;80.90
54948;BME280;41113;41.882;12.530;2023-01-28T13:14:52;100773.72;;;7.38;80.94
54948;BME280;41113;41.882;12.530;2023-01-28T13:17:31;100763.84;;;7.51;81.29
54948;BME280;41113;41.882;12.530;2023-01-28T13:19:59;100770.53;;;7.57;80.88
54948;BME280;41113;41.882;12.530;2023-01-28T13:22:34;100769.94;;;7.53;80.53
54948;BME280;41113;41.882;12.530;2023-01-28T13:27:57;100776.63;;;7.59;81.44
54948;BME280;41113;41.882;12.530;2023-01-28T13:30:26;100767.28;;;7.64;80.74
54948;BME280;41113;41.882;12.530;2023-01-28T13:33:03;100766.66;;;7.61;80.67
54948;BME280;41113;41.882;12.530;2023-01-28T13:35:39;100770.53;;;7.57;81.31
54948;BME280;41113;41.882;12.530;2023-01-28T13:38:15;100768.22;;;7.52;80.00
54948;BME280;41113;41.882;12.530;2023-01-28T13:40:42;100768.97;;;7.54;79.95
54948;BME280;41113;41.882;12.530;2023-01-28T13:43:28;100772.25;;;7.58;80.58
54948;BME280;41113;41.882;12.530;2023-01-28T13:46:14;100777.22;;;7.51;80.88
54948;BME280;41113;41.882;12.530;2023-01-28T13:48:52;100773.44;;;7.54;80.81
54948;BME280;41113;41.882;12.530;2023-01-28T13:51:36;100779.56;;;7.43;80.47
54948;BME280;41113;41.882;12.530;2023-01-28T13:54:04;100779.56;;;7.43;81.24
54948;BME280;41113;41.882;12.530;2023-01-28T13:56:40;100780.78;;;7.39;80.00
54948;BME280;41113;41.882;12.530;2023-01-28T14:04:38;100784.06;;;7.42;80.05
54948;BME280;41113;41.882;12.530;2023-01-28T14:10:53;100789.41;;;7.42;80.92
54948;BME280;41113;41.882;12.530;2023-01-28T14:13:32;100779.81;;;7.40;80.82
54948;BME280;41113;41.882;12.530;2023-01-28T14:16:16;100784.69;;;7.46;81.21
54948;BME280;41113;41.882;12.530;2023-01-28T14:18:44;100785.09;;;7.53;81.27
54948;BME280;41113;41.882;12.530;2023-01-28T14:21:17;100784.88;;;7.56;81.35
54948;BME280;41113;41.882;12.530;2023-01-28T14:23:49;100787.53;;;7.56;81.56
54948;BME280;41113;41.882;12.530;2023-01-28T14:26:41;100791.06;;;7.56;80.68
54948;BME280;41113;41.882;12.530;2023-01-28T14:32:14;100787.69;;;7.65;81.16
54948;BME280;41113;41.882;12.530;2023-01-28T14:34:49;100801.06;;;7.65;80.85
54948;BME280;41113;41.882;12.530;2023-01-28T14:37:41;100798.91;;;7.70;81.15
54948;BME280;41113;41.882;12.530;2023-01-28T14:40:12;100799.53;;;7.74;81.29
54948;BME280;41113;41.882;12.530;2023-01-28T14:42:41;100800.59;;;7.71;81.09
54948;BME280;41113;41.882;12.530;2023-01-28T14:48:10;100818.56;;;7.69;80.39
54948;BME280;41113;41.882;12.530;2023-01-28T14:51:04;100815.66;;;7.72;80.43
54948;BME280;41113;41.882;12.530;2023-01-28T15:01:47;100827.09;;;7.74;80.63